sensor_id;sensor_type;location;lat;lon;timestamp;pressure;altitude;pressure_sealevel;temperature;humidity
60719;BME280;46567;51.660;5.824;2022-12-07T00:02:28;101720.0;;;5.4;94.0
60719;BME280;46567;51.660;5.824;2022-12-07T00:07:28;101720.0;;;5.4;94.0
60719;BME280;46567;51.660;5.824;2022-12-07T00:12:28;101710.0;;;5.3;94.0
60719;BME280;46567;51.660;5.824;2022-12-07T00:17:28;101720.0;;;5.3;94.0
60719;BME280;46567;51.660;5.824;2022-12-07T00:27:28;101700.0;;;5.2;94.0
60719;BME280;46567;51.660;5.824;2022-12-07T00:32:28;101700.0;;;5.1;94.0
60719;BME280;46567;51.660;5.824;2022-12-07T00:37:28;101700.0;;;5.1;94.0
60719;BME280;46567;51.660;5.824;2022-12-07T00:42:29;101700.0;;;5.0;94.0
60719;BME280;46567;51.660;5.824;2022-12-07T00:47:28;101690.0;;;5.0;94.0
60719;BME280;46567;51.660;5.824;2022-12-07T00:52:28;101700.0;;;5.0;94.5
60719;BME280;46567;51.660;5.824;2022-12-07T00:57:29;101690.0;;;5.0;94.5
60719;BME280;46567;51.660;5.824;2022-12-07T01:02:28;101690.0;;;5.0;94.5
60719;BME280;46567;51.660;5.824;2022-12-07T01:07:28;101690.0;;;5.0;94.5
60719;BME280;46567;51.660;5.824;2022-12-07T01:12:28;101690.0;;;5.0;94.5
60719;BME280;46567;51.660;5.824;2022-12-07T01:17:28;101690.0;;;5.0;94.5
60719;BME280;46567;51.660;5.824;2022-12-07T01:22:28;101700.0;;;5.0;94.5
60719;BME280;46567;51.660;5.824;2022-12-07T01:27:28;101700.0;;;4.9;94.5
60719;BME280;46567;51.660;5.824;2022-12-07T01:32:28;101700.0;;;4.9;94.5
60719;BME280;46567;51.660;5.824;2022-12-07T01:42:28;101700.0;;;4.8;94.5
60719;BME280;46567;51.660;5.824;2022-12-07T01:47:28;101700.0;;;4.7;94.5
60719;BME280;46567;51.660;5.824;2022-12-07T01:52:31;101690.0;;;4.7;94.5
60719;BME280;46567;51.660;5.824;2022-12-07T01:57:33;101690.0;;;4.6;94.5
60719;BME280;46567;51.660;5.824;2022-12-07T02:02:31;101690.0;;;4.6;94.5
60719;BME280;46567;51.660;5.824;2022-12-07T02:12:28;101680.0;;;4.6;94.5
60719;BME280;46567;51.660;5.824;2022-12-07T02:17:41;101680.0;;;4.5;94.5
60719;BME280;46567;51.660;5.824;2022-12-07T02:24:13;101690.0;;;4.5;94.5
60719;BME280;46567;51.660;5.824;2022-12-07T02:28:51;101680.0;;;4.4;94.5
60719;BME280;46567;51.660;5.824;2022-12-07T02:32:44;101680.0;;;4.4;94.5
60719;BME280;46567;51.660;5.824;2022-12-07T02:37:36;101690.0;;;4.4;94.5
60719;BME280;46567;51.660;5.824;2022-12-07T02:42:32;101690.0;;;4.4;94.5
60719;BME280;46567;51.660;5.824;2022-12-07T02:47:29;101680.0;;;4.3;94.5
60719;BME280;46567;51.660;5.824;2022-12-07T02:52:29;101680.0;;;4.3;94.5
60719;BME280;46567;51.660;5.824;2022-12-07T02:58:16;101680.0;;;4.3;95.0
60719;BME280;46567;51.660;5.824;2022-12-07T03:02:56;101690.0;;;4.2;94.5
60719;BME280;46567;51.660;5.824;2022-12-07T03:08:07;101680.0;;;4.2;94.5
60719;BME280;46567;51.660;5.824;2022-12-07T03:12:32;101700.0;;;4.2;94.5
60719;BME280;46567;51.660;5.824;2022-12-07T03:17:31;101700.0;;;4.2;95.0
60719;BME280;46567;51.660;5.824;2022-12-07T03:27:37;101690.0;;;4.2;95.0
60719;BME280;46567;51.660;5.824;2022-12-07T03:32:33;101690.0;;;4.2;94.5
60719;BME280;46567;51.660;5.824;2022-12-07T03:37:35;101680.0;;;4.2;95.0
60719;BME280;46567;51.660;5.824;2022-12-07T03:42:28;101690.0;;;4.2;94.5
60719;BME280;46567;51.660;5.824;2022-12-07T03:47:59;101680.0;;;4.2;95.0
60719;BME280;46567;51.660;5.824;2022-12-07T03:52:32;101670.0;;;4.3;95.0
60719;BME280;46567;51.660;5.824;2022-12-07T03:57:30;101670.0;;;4.3;95.0
60719;BME280;46567;51.660;5.824;2022-12-07T04:02:28;101680.0;;;4.3;95.0
60719;BME280;46567;51.660;5.824;2022-12-07T04:07:28;101670.0;;;4.4;95.0
60719;BME280;46567;51.660;5.824;2022-12-07T04:12:28;101670.0;;;4.5;95.0
60719;BME280;46567;51.660;5.824;2022-12-07T04:17:28;101670.0;;;4.5;95.0
60719;BME280;46567;51.660;5.824;2022-12-07T04:27:28;101660.0;;;4.6;95.0
60719;BME280;46567;51.660;5.824;2022-12-07T04:32:28;101680.0;;;4.6;95.0
60719;BME280;46567;51.660;5.824;2022-12-07T04:37:28;101670.0;;;4.7;95.0
60719;BME280;46567;51.660;5.824;2022-12-07T04:47:28;101650.0;;;4.7;95.0
60719;BME280;46567;51.660;5.824;2022-12-07T04:52:28;101650.0;;;4.8;95.0
60719;BME280;46567;51.660;5.824;2022-12-07T04:57:28;101650.0;;;4.8;95.0
60719;BME280;46567;51.660;5.824;2022-12-07T05:02:28;101650.0;;;4.8;95.0
60719;BME280;46567;51.660;5.824;2022-12-07T05:07:28;101650.0;;;4.7;95.0
60719;BME280;46567;51.660;5.824;2022-12-07T05:12:28;101650.0;;;4.7;95.0
60719;BME280;46567;51.660;5.824;2022-12-07T05:17:28;101650.0;;;4.6;95.0
60719;BME280;46567;51.660;5.824;2022-12-07T05:27:28;101660.0;;;4.5;95.0
60719;BME280;46567;51.660;5.824;2022-12-07T05:37:28;101660.0;;;4.5;95.0
60719;BME280;46567;51.660;5.824;2022-12-07T05:42:28;101660.0;;;4.5;95.0
60719;BME280;46567;51.660;5.824;2022-12-07T05:52:28;101650.0;;;4.5;95.0
60719;BME280;46567;51.660;5.824;2022-12-07T05:57:28;101650.0;;;4.5;95.0
60719;BME280;46567;51.660;5.824;2022-12-07T06:02:28;101650.0;;;4.5;95.0
60719;BME280;46567;51.660;5.824;2022-12-07T06:07:28;101640.0;;;4.4;95.0
60719;BME280;46567;51.660;5.824;2022-12-07T06:12:28;101630.0;;;4.3;95.0
60719;BME280;46567;51.660;5.824;2022-12-07T06:17:28;101640.0;;;4.3;95.0
60719;BME280;46567;51.660;5.824;2022-12-07T06:22:28;101640.0;;;4.4;95.0
60719;BME280;46567;51.660;5.824;2022-12-07T06:27:28;101650.0;;;4.4;95.0
60719;BME280;46567;51.660;5.824;2022-12-07T06:32:28;101650.0;;;4.4;95.5
60719;BME280;46567;51.660;5.824;2022-12-07T06:37:28;101650.0;;;4.4;95.0
60719;BME280;46567;51.660;5.824;2022-12-07T06:42:28;101650.0;;;4.4;95.0
60719;BME280;46567;51.660;5.824;2022-12-07T06:47:28;101650.0;;;4.4;95.0
60719;BME280;46567;51.660;5.824;2022-12-07T06:52:41;101650.0;;;4.4;95.0
60719;BME280;46567;51.660;5.824;2022-12-07T06:57:28;101660.0;;;4.3;95.5
60719;BME280;46567;51.660;5.824;2022-12-07T07:02:28;101650.0;;;4.3;95.5
60719;BME280;46567;51.660;5.824;2022-12-07T07:07:28;101660.0;;;4.3;95.0
60719;BME280;46567;51.660;5.824;2022-12-07T07:12:28;101650.0;;;4.3;95.0
60719;BME280;46567;51.660;5.824;2022-12-07T07:17:28;101660.0;;;4.2;95.5
60719;BME280;46567;51.660;5.824;2022-12-07T07:22:28;101660.0;;;4.2;95.0
60719;BME280;46567;51.660;5.824;2022-12-07T07:27:42;101670.0;;;4.1;95.0
60719;BME280;46567;51.660;5.824;2022-12-07T07:32:28;101670.0;;;4.1;95.0
60719;BME280;46567;51.660;5.824;2022-12-07T07:37:28;101670.0;;;4.1;95.0
60719;BME280;46567;51.660;5.824;2022-12-07T07:42:41;101670.0;;;4.1;95.0
60719;BME280;46567;51.660;5.824;2022-12-07T07:47:28;101670.0;;;4.0;95.0
60719;BME280;46567;51.660;5.824;2022-12-07T07:52:28;101670.0;;;4.0;95.0
60719;BME280;46567;51.660;5.824;2022-12-07T07:57:41;101670.0;;;4.0;95.0
60719;BME280;46567;51.660;5.824;2022-12-07T08:02:28;101680.0;;;4.0;95.5
60719;BME280;46567;51.660;5.824;2022-12-07T08:07:28;101680.0;;;4.1;95.0
60719;BME280;46567;51.660;5.824;2022-12-07T08:12:28;101680.0;;;4.1;95.5
60719;BME280;46567;51.660;5.824;2022-12-07T08:17:28;101670.0;;;4.1;95.0
60719;BME280;46567;51.660;5.824;2022-12-07T08:22:28;101670.0;;;4.1;95.5
60719;BME280;46567;51.660;5.824;2022-12-07T08:27:28;101680.0;;;4.1;95.5
60719;BME280;46567;51.660;5.824;2022-12-07T08:32:28;101680.0;;;4.1;95.5
60719;BME280;46567;51.660;5.824;2022-12-07T08:37:28;101680.0;;;4.2;95.5
60719;BME280;46567;51.660;5.824;2022-12-07T08:42:28;101700.0;;;4.2;95.5
60719;BME280;46567;51.660;5.824;2022-12-07T08:47:44;101700.0;;;4.2;95.5
60719;BME280;46567;51.660;5.824;2022-12-07T08:52:28;101680.0;;;4.3;95.5
60719;BME280;46567;51.660;5.824;2022-12-07T08:57:28;101690.0;;;4.4;95.5
60719;BME280;46567;51.660;5.824;2022-12-07T09:07:30;101690.0;;;4.5;95.5
60719;BME280;46567;51.660;5.824;2022-12-07T09:12:28;101690.0;;;4.6;95.5
60719;BME280;46567;51.660;5.824;2022-12-07T09:17:41;101680.0;;;4.7;95.5
60719;BME280;46567;51.660;5.824;2022-12-07T09:22:28;101680.0;;;4.9;95.5
60719;BME280;46567;51.660;5.824;2022-12-07T09:27:28;101690.0;;;5.0;95.5
60719;BME280;46567;51.660;5.824;2022-12-07T09:32:28;101680.0;;;5.2;95.5
60719;BME280;46567;51.660;5.824;2022-12-07T09:37:28;101690.0;;;5.4;95.5
60719;BME280;46567;51.660;5.824;2022-12-07T09:42:37;101680.0;;;5.6;95.5
60719;BME280;46567;51.660;5.824;2022-12-07T09:47:28;101680.0;;;5.7;95.0
60719;BME280;46567;51.660;5.824;2022-12-07T09:52:30;101680.0;;;5.7;95.0
60719;BME280;46567;51.660;5.824;2022-12-07T09:57:42;101680.0;;;5.8;95.0
60719;BME280;46567;51.660;5.824;2022-12-07T10:02:46;101670.0;;;6.0;95.0
60719;BME280;46567;51.660;5.824;2022-12-07T10:07:29;101670.0;;;6.2;95.0
60719;BME280;46567;51.660;5.824;2022-12-07T10:12:28;101660.0;;;6.4;95.0
60719;BME280;46567;51.660;5.824;2022-12-07T10:17:49;101660.0;;;6.6;94.5
60719;BME280;46567;51.660;5.824;2022-12-07T10:22:28;101660.0;;;6.8;94.5
60719;BME280;46567;51.660;5.824;2022-12-07T10:27:32;101650.0;;;7.0;94.0
60719;BME280;46567;51.660;5.824;2022-12-07T10:32:36;101660.0;;;7.1;94.0
60719;BME280;46567;51.660;5.824;2022-12-07T10:37:28;101640.0;;;7.1;93.5
60719;BME280;46567;51.660;5.824;2022-12-07T10:42:30;101630.0;;;7.1;93.5
60719;BME280;46567;51.660;5.824;2022-12-07T10:47:52;101620.0;;;7.2;94.0
60719;BME280;46567;51.660;5.824;2022-12-07T10:53:10;101630.0;;;7.2;93.5
60719;BME280;46567;51.660;5.824;2022-12-07T10:58:43;101620.0;;;7.2;93.5
60719;BME280;46567;51.660;5.824;2022-12-07T11:03:53;101610.0;;;7.2;93.5
60719;BME280;46567;51.660;5.824;2022-12-07T11:09:00;101610.0;;;7.3;93.5
60719;BME280;46567;51.660;5.824;2022-12-07T11:14:05;101610.0;;;7.4;93.5
60719;BME280;46567;51.660;5.824;2022-12-07T11:17:55;101600.0;;;7.4;93.5
60719;BME280;46567;51.660;5.824;2022-12-07T11:22:56;101600.0;;;7.4;93.0
60719;BME280;46567;51.660;5.824;2022-12-07T11:28:17;101590.0;;;7.5;93.0
60719;BME280;46567;51.660;5.824;2022-12-07T11:33:27;101590.0;;;7.5;93.0
60719;BME280;46567;51.660;5.824;2022-12-07T11:37:35;101590.0;;;7.5;92.5
60719;BME280;46567;51.660;5.824;2022-12-07T11:42:37;101580.0;;;7.5;92.5
60719;BME280;46567;51.660;5.824;2022-12-07T11:47:34;101570.0;;;7.5;92.0
60719;BME280;46567;51.660;5.824;2022-12-07T11:52:40;101560.0;;;7.6;92.0
60719;BME280;46567;51.660;5.824;2022-12-07T11:57:42;101550.0;;;7.8;92.0
60719;BME280;46567;51.660;5.824;2022-12-07T12:02:46;101550.0;;;7.9;91.5
60719;BME280;46567;51.660;5.824;2022-12-07T12:07:28;101550.0;;;8.0;91.0
60719;BME280;46567;51.660;5.824;2022-12-07T12:13:21;101550.0;;;8.1;91.0
60719;BME280;46567;51.660;5.824;2022-12-07T12:19:25;101550.0;;;8.1;90.5
60719;BME280;46567;51.660;5.824;2022-12-07T12:22:34;101560.0;;;8.1;91.0
60719;BME280;46567;51.660;5.824;2022-12-07T12:27:39;101550.0;;;8.0;91.0
60719;BME280;46567;51.660;5.824;2022-12-07T12:32:41;101540.0;;;7.9;90.5
60719;BME280;46567;51.660;5.824;2022-12-07T12:37:44;101540.0;;;7.9;91.0
60719;BME280;46567;51.660;5.824;2022-12-07T12:42:44;101530.0;;;7.8;91.0
60719;BME280;46567;51.660;5.824;2022-12-07T12:47:55;101530.0;;;7.8;91.0
60719;BME280;46567;51.660;5.824;2022-12-07T12:53:22;101520.0;;;7.8;90.5
60719;BME280;46567;51.660;5.824;2022-12-07T12:57:34;101510.0;;;7.8;90.5
60719;BME280;46567;51.660;5.824;2022-12-07T13:02:33;101510.0;;;7.8;90.5
60719;BME280;46567;51.660;5.824;2022-12-07T13:07:57;101500.0;;;7.7;90.0
60719;BME280;46567;51.660;5.824;2022-12-07T13:12:28;101500.0;;;7.7;90.0
60719;BME280;46567;51.660;5.824;2022-12-07T13:18:24;101510.0;;;7.7;89.5
60719;BME280;46567;51.660;5.824;2022-12-07T13:22:49;101490.0;;;7.7;89.5
60719;BME280;46567;51.660;5.824;2022-12-07T13:27:28;101490.0;;;7.6;89.0
60719;BME280;46567;51.660;5.824;2022-12-07T13:32:28;101480.0;;;7.6;89.5
60719;BME280;46567;51.660;5.824;2022-12-07T13:37:32;101470.0;;;7.7;89.5
60719;BME280;46567;51.660;5.824;2022-12-07T13:42:30;101470.0;;;7.7;89.0
60719;BME280;46567;51.660;5.824;2022-12-07T13:47:47;101460.0;;;7.7;88.5
60719;BME280;46567;51.660;5.824;2022-12-07T13:52:31;101460.0;;;7.7;88.5
60719;BME280;46567;51.660;5.824;2022-12-07T13:57:30;101450.0;;;7.7;88.5
60719;BME280;46567;51.660;5.824;2022-12-07T14:02:33;101450.0;;;7.7;88.5
60719;BME280;46567;51.660;5.824;2022-12-07T14:07:28;101450.0;;;7.7;88.5
60719;BME280;46567;51.660;5.824;2022-12-07T14:12:29;101450.0;;;7.7;88.0
60719;BME280;46567;51.660;5.824;2022-12-07T14:17:28;101440.0;;;7.7;88.0
60719;BME280;46567;51.660;5.824;2022-12-07T14:22:30;101440.0;;;7.6;88.0
60719;BME280;46567;51.660;5.824;2022-12-07T14:27:31;101430.0;;;7.6;88.0
60719;BME280;46567;51.660;5.824;2022-12-07T14:32:30;101430.0;;;7.5;88.0
60719;BME280;46567;51.660;5.824;2022-12-07T14:37:29;101430.0;;;7.5;88.5
60719;BME280;46567;51.660;5.824;2022-12-07T14:42:30;101430.0;;;7.4;88.5
60719;BME280;46567;51.660;5.824;2022-12-07T14:47:28;101430.0;;;7.3;88.5
60719;BME280;46567;51.660;5.824;2022-12-07T14:52:29;101440.0;;;7.3;89.0
60719;BME280;46567;51.660;5.824;2022-12-07T14:57:28;101430.0;;;7.2;89.0
60719;BME280;46567;51.660;5.824;2022-12-07T15:02:28;101430.0;;;7.1;88.5
60719;BME280;46567;51.660;5.824;2022-12-07T15:07:28;101420.0;;;7.0;88.5
60719;BME280;46567;51.660;5.824;2022-12-07T15:12:28;101420.0;;;6.8;88.5
60719;BME280;46567;51.660;5.824;2022-12-07T15:17:28;101420.0;;;6.7;89.0
60719;BME280;46567;51.660;5.824;2022-12-07T15:22:28;101420.0;;;6.5;89.0
60719;BME280;46567;51.660;5.824;2022-12-07T15:27:29;101420.0;;;6.4;89.5
60719;BME280;46567;51.660;5.824;2022-12-07T15:32:28;101420.0;;;6.2;89.5
60719;BME280;46567;51.660;5.824;2022-12-07T15:37:28;101420.0;;;6.1;89.5
60719;BME280;46567;51.660;5.824;2022-12-07T15:42:28;101420.0;;;6.0;90.0
60719;BME280;46567;51.660;5.824;2022-12-07T15:47:28;101410.0;;;5.9;90.0
60719;BME280;46567;51.660;5.824;2022-12-07T15:52:28;101410.0;;;5.8;90.0
60719;BME280;46567;51.660;5.824;2022-12-07T15:57:28;101400.0;;;5.7;90.0
60719;BME280;46567;51.660;5.824;2022-12-07T16:02:28;101410.0;;;5.7;90.5
60719;BME280;46567;51.660;5.824;2022-12-07T16:07:28;101400.0;;;5.6;90.5
60719;BME280;46567;51.660;5.824;2022-12-07T16:12:28;101390.0;;;5.6;90.5
60719;BME280;46567;51.660;5.824;2022-12-07T16:17:28;101390.0;;;5.5;90.5
60719;BME280;46567;51.660;5.824;2022-12-07T16:22:28;101380.0;;;5.5;90.5
60719;BME280;46567;51.660;5.824;2022-12-07T16:27:28;101380.0;;;5.5;90.5
60719;BME280;46567;51.660;5.824;2022-12-07T16:32:28;101370.0;;;5.4;90.5
60719;BME280;46567;51.660;5.824;2022-12-07T16:37:28;101380.0;;;5.3;90.5
60719;BME280;46567;51.660;5.824;2022-12-07T16:42:31;101380.0;;;5.3;90.5
60719;BME280;46567;51.660;5.824;2022-12-07T16:47:28;101370.0;;;5.3;91.0
60719;BME280;46567;51.660;5.824;2022-12-07T16:52:28;101370.0;;;5.3;91.0
60719;BME280;46567;51.660;5.824;2022-12-07T16:57:29;101370.0;;;5.3;91.0
60719;BME280;46567;51.660;5.824;2022-12-07T17:02:28;101360.0;;;5.2;91.0
60719;BME280;46567;51.660;5.824;2022-12-07T17:07:28;101360.0;;;5.2;91.0
60719;BME280;46567;51.660;5.824;2022-12-07T17:12:28;101350.0;;;5.2;91.0
60719;BME280;46567;51.660;5.824;2022-12-07T17:17:28;101350.0;;;5.2;91.5
60719;BME280;46567;51.660;5.824;2022-12-07T17:22:28;101350.0;;;5.3;91.5
60719;BME280;46567;51.660;5.824;2022-12-07T17:27:28;101350.0;;;5.3;91.5
60719;BME280;46567;51.660;5.824;2022-12-07T17:32:28;101330.0;;;5.3;91.5
60719;BME280;46567;51.660;5.824;2022-12-07T17:37:29;101330.0;;;5.4;91.5
60719;BME280;46567;51.660;5.824;2022-12-07T17:42:28;101330.0;;;5.4;92.0
60719;BME280;46567;51.660;5.824;2022-12-07T17:47:28;101340.0;;;5.4;91.5
60719;BME280;46567;51.660;5.824;2022-12-07T17:52:28;101310.0;;;5.4;92.0
60719;BME280;46567;51.660;5.824;2022-12-07T17:57:28;101320.0;;;5.4;92.0
60719;BME280;46567;51.660;5.824;2022-12-07T18:02:28;101320.0;;;5.4;92.0
60719;BME280;46567;51.660;5.824;2022-12-07T18:07:28;101310.0;;;5.4;92.0
60719;BME280;46567;51.660;5.824;2022-12-07T18:12:28;101300.0;;;5.5;92.0
60719;BME280;46567;51.660;5.824;2022-12-07T18:17:28;101300.0;;;5.5;92.0
60719;BME280;46567;51.660;5.824;2022-12-07T18:22:28;101290.0;;;5.5;92.0
60719;BME280;46567;51.660;5.824;2022-12-07T18:27:28;101280.0;;;5.5;92.0
60719;BME280;46567;51.660;5.824;2022-12-07T18:37:28;101280.0;;;5.5;92.5
60719;BME280;46567;51.660;5.824;2022-12-07T18:42:28;101280.0;;;5.5;92.5
60719;BME280;46567;51.660;5.824;2022-12-07T18:47:28;101280.0;;;5.5;92.5
60719;BME280;46567;51.660;5.824;2022-12-07T18:52:28;101270.0;;;5.5;92.5
60719;BME280;46567;51.660;5.824;2022-12-07T18:57:30;101270.0;;;5.5;92.5
60719;BME280;46567;51.660;5.824;2022-12-07T19:02:28;101270.0;;;5.5;92.5
60719;BME280;46567;51.660;5.824;2022-12-07T19:07:28;101280.0;;;5.5;92.5
60719;BME280;46567;51.660;5.824;2022-12-07T19:12:28;101270.0;;;5.4;92.5
60719;BME280;46567;51.660;5.824;2022-12-07T19:17:28;101270.0;;;5.4;92.5
60719;BME280;46567;51.660;5.824;2022-12-07T19:22:28;101260.0;;;5.4;92.5
60719;BME280;46567;51.660;5.824;2022-12-07T19:27:29;101270.0;;;5.4;92.5
60719;BME280;46567;51.660;5.824;2022-12-07T19:32:28;101260.0;;;5.4;92.5
60719;BME280;46567;51.660;5.824;2022-12-07T19:37:28;101260.0;;;5.4;92.5
60719;BME280;46567;51.660;5.824;2022-12-07T19:42:28;101260.0;;;5.5;93.0
60719;BME280;46567;51.660;5.824;2022-12-07T19:47:28;101270.0;;;5.5;93.0
60719;BME280;46567;51.660;5.824;2022-12-07T19:52:28;101270.0;;;5.5;92.5
60719;BME280;46567;51.660;5.824;2022-12-07T19:57:28;101260.0;;;5.5;92.5
60719;BME280;46567;51.660;5.824;2022-12-07T20:02:28;101260.0;;;5.5;93.0
60719;BME280;46567;51.660;5.824;2022-12-07T20:07:28;101260.0;;;5.5;93.0
60719;BME280;46567;51.660;5.824;2022-12-07T20:12:28;101250.0;;;5.6;93.0
60719;BME280;46567;51.660;5.824;2022-12-07T20:17:28;101250.0;;;5.6;93.0
60719;BME280;46567;51.660;5.824;2022-12-07T20:22:28;101230.0;;;5.6;93.0
60719;BME280;46567;51.660;5.824;2022-12-07T20:32:28;101230.0;;;5.6;93.0
60719;BME280;46567;51.660;5.824;2022-12-07T20:37:28;101220.0;;;5.6;93.0
60719;BME280;46567;51.660;5.824;2022-12-07T20:47:28;101210.0;;;5.6;93.5
60719;BME280;46567;51.660;5.824;2022-12-07T20:52:28;101210.0;;;5.6;93.0
60719;BME280;46567;51.660;5.824;2022-12-07T21:02:28;101200.0;;;5.6;93.0
60719;BME280;46567;51.660;5.824;2022-12-07T21:07:42;101200.0;;;5.5;93.0
60719;BME280;46567;51.660;5.824;2022-12-07T21:12:28;101190.0;;;5.5;93.0
60719;BME280;46567;51.660;5.824;2022-12-07T21:17:28;101170.0;;;5.5;93.5
60719;BME280;46567;51.660;5.824;2022-12-07T21:22:28;101180.0;;;5.4;93.0
60719;BME280;46567;51.660;5.824;2022-12-07T21:27:28;101180.0;;;5.4;93.0
60719;BME280;46567;51.660;5.824;2022-12-07T21:32:28;101170.0;;;5.4;93.5
60719;BME280;46567;51.660;5.824;2022-12-07T21:37:28;101170.0;;;5.3;93.5
60719;BME280;46567;51.660;5.824;2022-12-07T21:52:28;101160.0;;;5.2;93.5
60719;BME280;46567;51.660;5.824;2022-12-07T21:57:30;101160.0;;;5.2;93.5
60719;BME280;46567;51.660;5.824;2022-12-07T22:02:28;101160.0;;;5.1;93.5
60719;BME280;46567;51.660;5.824;2022-12-07T22:07:28;101170.0;;;5.1;93.5
60719;BME280;46567;51.660;5.824;2022-12-07T22:12:28;101160.0;;;5.1;93.5
60719;BME280;46567;51.660;5.824;2022-12-07T22:17:28;101160.0;;;5.1;93.5
60719;BME280;46567;51.660;5.824;2022-12-07T22:22:28;101160.0;;;5.0;93.5
60719;BME280;46567;51.660;5.824;2022-12-07T22:27:28;101150.0;;;5.0;93.5
60719;BME280;46567;51.660;5.824;2022-12-07T22:32:28;101140.0;;;5.0;93.5
60719;BME280;46567;51.660;5.824;2022-12-07T22:37:30;101130.0;;;5.0;93.5
60719;BME280;46567;51.660;5.824;2022-12-07T22:42:29;101130.0;;;5.0;93.5
60719;BME280;46567;51.660;5.824;2022-12-07T22:47:28;101120.0;;;5.0;93.5
60719;BME280;46567;51.660;5.824;2022-12-07T22:52:28;101120.0;;;5.0;93.5
60719;BME280;46567;51.660;5.824;2022-12-07T22:57:29;101100.0;;;5.0;93.5
60719;BME280;46567;51.660;5.824;2022-12-07T23:02:28;101090.0;;;5.0;93.5
60719;BME280;46567;51.660;5.824;2022-12-07T23:07:28;101080.0;;;5.0;93.5
60719;BME280;46567;51.660;5.824;2022-12-07T23:12:28;101080.0;;;5.0;93.5
60719;BME280;46567;51.660;5.824;2022-12-07T23:17:28;101070.0;;;5.0;93.5
60719;BME280;46567;51.660;5.824;2022-12-07T23:22:28;101070.0;;;5.0;94.0
60719;BME280;46567;51.660;5.824;2022-12-07T23:27:28;101070.0;;;5.0;94.0
60719;BME280;46567;51.660;5.824;2022-12-07T23:32:28;101070.0;;;5.0;93.5
60719;BME280;46567;51.660;5.824;2022-12-07T23:37:28;101060.0;;;4.9;94.0
60719;BME280;46567;51.660;5.824;2022-12-07T23:42:28;101060.0;;;4.9;94.0
60719;BME280;46567;51.660;5.824;2022-12-07T23:47:28;101050.0;;;4.9;94.0
60719;BME280;46567;51.660;5.824;2022-12-07T23:57:30;101050.0;;;4.8;94.0
